Ana Sayfa
METAR-TAF:

METAR-TAF

Havaalanları :

Aydın Çıldır Havalimanı

Aydın, Türkiye

Enlem: 37-48-54N, Boylam: 27-53-21E, yükseklik: 31 m

Güncel hava durumu gözlemi

Rapor saat 12:50 UTC de 1 saat ve 3 dakika önce yapıldı.
Rüzgar batıdan 7 kt
Sıcaklık 32°C
Nem 32%
Basınç 1013 hPa
Görüş mesafesi 10 km veya daha fazla
4000 ft yükseklikte az bulutlu
10000 ft yükseklikte parçalı çok bulutlu

METAR: LTBD 151250Z 27007KT 9999 FEW040 BKN100 32/13 Q1013

Saat: 16:53 (13:53 UTC)

Tahmin

Rapor saat 10:40 UTC de 3 saat ve 13 dakika önce yapıldı.
Ayın 15'si saat 12 UTC'den ayın 15'si saat 21 UTC'ye kadar geçerli Tahmin
Rüzgar değişken yönden 2 kt
Görüş mesafesi 10 km veya daha fazla
1500 m altında bulut yok ve kümülonimbus yok
Geçici
ayın 15'si saat 12 UTC'den ayın 15'si saat 16 UTC'ye kadar
Rüzgar batıdan 12 kt

TAF: LTBD 151040Z 1512/1521 VRB02KT CAVOK TEMPO 1512/1516 27012KT

4.000'den fazla havaalanı için hava durumu gözlemleri ve tahminleri (METAR ve TAF raporları).

Kullanılabilir istasyonlar harita üzerinde sarı ve kırmızı noktalarla gösterilir.

İstasyonun adını görmek için fareyi noktanın üzerinde gezdirin.

Sonrasında hava gözlem ve tahminlerini görmek için tıklayın.

Haritayı değiştirmek için: yaklaştırmak için siyah artı işaretli yeşil düğmeye ve uzaklaştırmak için de eksi işaretli düğmeye hızla tıklayın; bitişik haritalar için yeşil okları kullanın.


METAR-TAF: